Time;durP1;ratioP1;P1;durP2;ratioP2;P2;SDS_P1;SDS_P2;PMS_P1;PMS_P2;Temp;Humidity;BMP_temperature;BMP_pressure;BME280_temperature;BME280_humidity;BME280_pressure;Samples;Min_cycle;Max_cycle;Signal;HPM_P1;HPM_P2
2023/06/25 00:01:43;;;;;;;20.63;18.60;;;16.90;88.50;;;;;;5049419;28;20462;-45
2023/06/25 00:04:12;;;;;;;24.25;19.58;;;16.90;88.70;;;;;;5043701;28;20045;-46
2023/06/25 00:06:38;;;;;;;24.70;19.02;;;16.80;88.60;;;;;;5047731;28;20021;-49
2023/06/25 00:09:06;;;;;;;23.30;20.83;;;16.80;88.60;;;;;;5045708;28;20036;-46
2023/06/25 00:11:33;;;;;;;22.50;20.20;;;16.70;88.60;;;;;;5049669;28;20505;-48
2023/06/25 00:14:11;;;;;;;23.75;20.88;;;16.80;88.70;;;;;;5040748;28;20024;-46
2023/06/25 00:16:42;;;;;;;24.85;20.48;;;16.70;88.70;;;;;;5046227;28;20107;-46
2023/06/25 00:19:10;;;;;;;32.05;22.33;;;16.70;88.70;;;;;;5049936;28;20040;-46
2023/06/25 00:21:37;;;;;;;23.33;20.02;;;16.70;88.80;;;;;;5047526;28;20129;-48
2023/06/25 00:24:04;;;;;;;23.75;20.52;;;16.70;88.80;;;;;;5043098;28;20061;-48
2023/06/25 00:26:31;;;;;;;25.88;23.15;;;16.70;88.90;;;;;;5049059;28;20140;-46
2023/06/25 00:28:57;;;;;;;25.85;21.75;;;16.70;88.70;;;;;;5043818;28;20044;-49
2023/06/25 00:31:22;;;;;;;23.70;21.05;;;16.60;88.70;;;;;;5050509;28;20033;-46
2023/06/25 00:33:49;;;;;;;26.58;22.83;;;16.60;88.90;;;;;;5045935;28;20033;-47
2023/06/25 00:36:17;;;;;;;28.10;21.15;;;16.60;88.90;;;;;;5048988;28;20469;-45
2023/06/25 00:38:44;;;;;;;27.30;22.10;;;16.50;89.00;;;;;;5052307;28;20441;-46
2023/06/25 00:41:10;;;;;;;25.05;20.73;;;16.60;89.10;;;;;;5052156;28;20029;-47
2023/06/25 00:43:41;;;;;;;24.67;21.67;;;16.50;89.10;;;;;;5052777;28;20037;-47
2023/06/25 00:46:12;;;;;;;25.63;22.95;;;16.50;89.00;;;;;;5048675;28;20051;-46
2023/06/25 00:48:48;;;;;;;20.83;17.85;;;16.60;89.10;;;;;;5053425;28;20422;-47
2023/06/25 00:51:17;;;;;;;24.73;21.77;;;16.60;89.10;;;;;;5052017;28;20359;-48
2023/06/25 00:53:45;;;;;;;23.88;21.30;;;16.60;89.30;;;;;;5066602;28;20052;-47
2023/06/25 00:56:13;;;;;;;24.38;21.77;;;16.60;89.20;;;;;;5051317;28;20327;-44
2023/06/25 00:58:44;;;;;;;23.33;21.02;;;16.60;89.20;;;;;;5051333;28;20029;-45
2023/06/25 01:01:26;;;;;;;23.35;20.88;;;16.60;89.20;;;;;;5051132;28;20108;-45
2023/06/25 01:04:00;;;;;;;18.85;16.70;;;16.60;89.10;;;;;;5044118;28;20374;-46
2023/06/25 01:06:29;;;;;;;23.58;20.30;;;16.50;89.20;;;;;;5051810;28;20370;-44
2023/06/25 01:08:59;;;;;;;22.10;19.40;;;16.50;89.20;;;;;;5048245;28;20036;-46
2023/06/25 01:11:30;;;;;;;22.50;19.55;;;16.50;89.20;;;;;;5015392;28;20054;-45
2023/06/25 01:14:02;;;;;;;23.00;20.60;;;16.40;89.30;;;;;;5032307;28;20037;-45
2023/06/25 01:16:31;;;;;;;21.20;18.90;;;16.40;89.40;;;;;;5031464;28;20029;-45
2023/06/25 01:19:02;;;;;;;21.75;19.55;;;16.40;89.50;;;;;;5021966;28;20049;-45
2023/06/25 01:21:33;;;;;;;25.20;22.00;;;16.40;89.50;;;;;;5030165;28;20069;-45
2023/06/25 01:24:02;;;;;;;24.85;21.08;;;16.30;89.50;;;;;;5014416;28;20103;-46
2023/06/25 01:26:28;;;;;;;23.92;21.13;;;16.30;89.50;;;;;;5032138;28;20025;-44
2023/06/25 01:28:55;;;;;;;24.00;20.80;;;16.30;89.50;;;;;;5031044;28;20044;-45
2023/06/25 01:31:25;;;;;;;22.58;19.77;;;16.30;89.50;;;;;;5029690;28;20430;-45
2023/06/25 01:33:53;;;;;;;23.30;20.88;;;16.30;89.60;;;;;;5032542;28;20100;-46
2023/06/25 01:36:21;;;;;;;24.10;20.92;;;16.20;89.50;;;;;;5032026;28;20374;-44
2023/06/25 01:38:48;;;;;;;22.98;19.23;;;16.20;89.50;;;;;;5030036;28;20347;-44
2023/06/25 01:41:14;;;;;;;21.83;19.52;;;16.20;89.60;;;;;;5013931;28;20033;-44
2023/06/25 01:43:42;;;;;;;23.20;20.73;;;16.20;89.60;;;;;;5032233;28;20028;-45
2023/06/25 01:46:10;;;;;;;21.88;19.45;;;16.10;89.50;;;;;;5030368;28;20034;-45
2023/06/25 01:48:39;;;;;;;21.05;18.85;;;16.10;89.70;;;;;;5031424;28;20025;-45
2023/06/25 01:51:08;;;;;;;22.95;20.50;;;16.10;89.70;;;;;;5031456;28;20025;-44
2023/06/25 01:53:35;;;;;;;23.17;19.30;;;16.10;89.60;;;;;;5013149;28;20411;-47
2023/06/25 01:56:05;;;;;;;23.02;20.55;;;16.10;89.60;;;;;;5031347;28;20034;-46
2023/06/25 01:58:33;;;;;;;23.02;19.30;;;16.10;89.60;;;;;;5003501;28;20029;-45
2023/06/25 02:01:00;;;;;;;23.75;21.25;;;16.10;89.60;;;;;;5018556;28;20076;-44
2023/06/25 02:03:27;;;;;;;22.88;20.45;;;16.00;89.50;;;;;;5033148;28;20036;-44
2023/06/25 02:05:55;;;;;;;22.45;20.13;;;16.00;89.60;;;;;;5034897;28;20100;-47
2023/06/25 02:08:22;;;;;;;22.83;20.40;;;16.00;89.70;;;;;;5015900;28;20036;-44
2023/06/25 02:10:48;;;;;;;24.67;21.40;;;16.00;89.80;;;;;;5049745;28;20053;-44
2023/06/25 02:13:16;;;;;;;23.42;20.90;;;16.00;89.70;;;;;;5055384;28;20140;-46
2023/06/25 02:15:44;;;;;;;25.45;22.75;;;16.00;89.80;;;;;;5053543;28;20021;-45
2023/06/25 02:18:11;;;;;;;22.50;20.02;;;16.00;89.90;;;;;;5054807;28;20109;-45
2023/06/25 02:20:39;;;;;;;23.80;21.13;;;16.00;89.90;;;;;;5055720;28;20116;-45
2023/06/25 02:23:04;;;;;;;25.52;21.88;;;15.90;89.90;;;;;;5039629;28;20089;-45
2023/06/25 02:25:31;;;;;;;23.85;21.33;;;15.90;89.90;;;;;;5055668;28;20673;-46
2023/06/25 02:27:59;;;;;;;28.70;22.20;;;15.90;90.00;;;;;;5054365;28;20494;-44
2023/06/25 02:30:29;;;;;;;24.15;20.40;;;15.90;90.00;;;;;;5035942;28;20871;-45
2023/06/25 02:32:58;;;;;;;23.45;20.33;;;15.90;90.10;;;;;;5054054;28;20048;-44
2023/06/25 02:35:27;;;;;;;25.42;22.73;;;15.90;90.10;;;;;;5037991;28;20434;-45
2023/06/25 02:37:54;;;;;;;26.10;21.15;;;15.90;90.00;;;;;;5055271;28;20100;-45
2023/06/25 02:40:22;;;;;;;22.45;20.02;;;15.80;90.10;;;;;;5055227;28;20071;-44
2023/06/25 02:42:48;;;;;;;24.02;20.70;;;15.90;90.20;;;;;;5037356;28;20037;-44
2023/06/25 02:45:14;;;;;;;25.45;21.35;;;15.80;90.20;;;;;;5052287;28;20119;-46
2023/06/25 02:47:40;;;;;;;22.42;19.23;;;15.90;90.20;;;;;;5037662;28;20060;-44
2023/06/25 02:50:07;;;;;;;23.50;21.00;;;15.90;90.20;;;;;;5055528;28;20029;-45
2023/06/25 02:52:35;;;;;;;25.17;22.48;;;15.80;90.10;;;;;;5054125;28;20235;-47
2023/06/25 02:55:03;;;;;;;25.17;19.80;;;15.80;90.00;;;;;;5052422;28;20029;-44
2023/06/25 02:57:30;;;;;;;25.50;20.40;;;15.80;90.10;;;;;;5054992;28;20071;-47
2023/06/25 02:59:57;;;;;;;22.33;19.80;;;15.80;90.10;;;;;;5054896;28;20561;-43
2023/06/25 03:02:24;;;;;;;22.00;19.65;;;15.80;90.10;;;;;;5035400;28;20132;-45
2023/06/25 03:04:50;;;;;;;26.67;21.33;;;15.80;90.10;;;;;;5054131;28;20033;-44
2023/06/25 03:07:18;;;;;;;23.88;20.60;;;15.80;90.10;;;;;;5053169;28;20033;-47
2023/06/25 03:09:45;;;;;;;25.23;20.40;;;15.80;90.10;;;;;;5035253;28;20107;-47
2023/06/25 03:12:12;;;;;;;22.27;19.95;;;15.80;90.20;;;;;;5054106;28;20075;-45
2023/06/25 03:14:43;;;;;;;27.08;21.88;;;15.80;90.20;;;;;;5036800;28;20108;-44
2023/06/25 03:17:10;;;;;;;25.38;22.50;;;15.80;90.30;;;;;;5053035;28;20068;-43
2023/06/25 03:19:36;;;;;;;30.75;24.88;;;15.80;90.40;;;;;;5036651;28;20485;-43
2023/06/25 03:22:03;;;;;;;28.83;24.08;;;15.80;90.40;;;;;;5035149;28;20033;-45
2023/06/25 03:24:31;;;;;;;28.85;23.92;;;15.80;90.40;;;;;;5052536;28;20029;-45
2023/06/25 03:26:59;;;;;;;29.92;23.48;;;15.80;90.40;;;;;;5054936;28;20021;-44
2023/06/25 03:29:24;;;;;;;28.45;23.75;;;15.80;90.50;;;;;;5053063;28;20118;-43
2023/06/25 03:31:51;;;;;;;27.38;23.60;;;15.80;90.50;;;;;;5053020;28;20087;-44
2023/06/25 03:34:17;;;;;;;30.70;24.90;;;15.80;90.60;;;;;;5054685;28;20020;-46
2023/06/25 03:36:45;;;;;;;25.60;22.83;;;15.90;90.60;;;;;;5037053;28;20540;-47
2023/06/25 03:39:13;;;;;;;25.60;20.80;;;15.90;90.60;;;;;;5033865;28;20028;-46
2023/06/25 03:41:40;;;;;;;25.13;21.35;;;15.90;90.70;;;;;;5036605;28;20025;-44
2023/06/25 03:44:07;;;;;;;24.02;19.88;;;15.90;90.70;;;;;;5036999;28;20033;-45
2023/06/25 03:46:32;;;;;;;25.27;21.55;;;15.90;90.70;;;;;;5052480;28;20032;-44
2023/06/25 03:48:59;;;;;;;27.10;22.98;;;15.90;90.80;;;;;;5052461;28;20063;-46
2023/06/25 03:51:27;;;;;;;26.08;22.48;;;15.90;90.80;;;;;;5054231;28;20029;-43
2023/06/25 03:54:00;;;;;;;29.17;22.02;;;15.90;90.80;;;;;;5035685;28;20040;-45
2023/06/25 03:56:27;;;;;;;23.20;18.13;;;16.00;90.80;;;;;;5036365;28;20393;-45
2023/06/25 03:58:55;;;;;;;23.80;19.00;;;16.00;90.80;;;;;;5052321;28;20031;-45
2023/06/25 04:01:23;;;;;;;21.52;17.92;;;16.10;90.90;;;;;;5052086;28;20024;-44
2023/06/25 04:03:54;;;;;;;21.13;16.67;;;16.10;90.90;;;;;;5054214;28;20068;-45
2023/06/25 04:06:21;;;;;;;21.55;16.02;;;16.20;90.90;;;;;;5034826;28;20107;-44
2023/06/25 04:08:48;;;;;;;20.75;16.80;;;16.20;90.90;;;;;;5051616;28;20037;-44
2023/06/25 04:11:14;;;;;;;21.70;17.88;;;16.20;90.90;;;;;;5051550;28;20044;-46
2023/06/25 04:13:40;;;;;;;22.95;18.20;;;16.30;90.90;;;;;;5055244;28;20487;-45
2023/06/25 04:16:09;;;;;;;22.77;18.75;;;16.30;90.90;;;;;;5049478;28;20079;-45
2023/06/25 04:18:40;;;;;;;24.63;18.30;;;16.40;90.90;;;;;;5054037;28;20028;-46
2023/06/25 04:21:06;;;;;;;29.17;23.40;;;16.40;90.90;;;;;;5052683;28;20028;-48
2023/06/25 04:23:33;;;;;;;33.78;24.23;;;16.50;90.90;;;;;;5051538;28;20033;-47
2023/06/25 04:26:02;;;;;;;33.45;24.20;;;16.50;91.00;;;;;;5050517;28;20070;-45
2023/06/25 04:28:29;;;;;;;27.45;22.20;;;16.60;90.90;;;;;;5053482;28;20025;-47
2023/06/25 04:30:56;;;;;;;26.80;20.55;;;16.60;90.90;;;;;;5051089;28;20029;-47
2023/06/25 04:33:24;;;;;;;25.80;20.08;;;16.70;90.90;;;;;;5035812;28;20103;-47
2023/06/25 04:35:56;;;;;;;22.27;18.08;;;16.80;91.00;;;;;;5050657;28;20029;-44
2023/06/25 04:38:23;;;;;;;22.05;16.85;;;16.90;90.90;;;;;;5052668;28;20104;-45
2023/06/25 04:40:54;;;;;;;17.17;15.05;;;17.00;90.90;;;;;;5052700;28;20036;-45
2023/06/25 04:43:21;;;;;;;14.90;12.68;;;17.20;90.90;;;;;;5053369;28;20037;-47
2023/06/25 04:45:46;;;;;;;16.05;12.93;;;17.30;90.70;;;;;;5049463;28;20065;-48
2023/06/25 04:48:12;;;;;;;13.07;11.70;;;17.40;90.40;;;;;;5053276;28;20060;-47
2023/06/25 04:50:38;;;;;;;14.48;11.95;;;17.40;90.40;;;;;;5052329;28;20125;-45
2023/06/25 04:53:06;;;;;;;13.40;11.05;;;17.60;90.30;;;;;;5034462;28;20044;-45
2023/06/25 04:55:33;;;;;;;16.60;13.30;;;17.70;90.10;;;;;;5051548;28;20033;-46
2023/06/25 04:58:00;;;;;;;19.75;15.65;;;17.70;90.10;;;;;;5053123;28;20025;-47
2023/06/25 05:00:27;;;;;;;19.35;14.20;;;17.80;89.80;;;;;;5050896;28;20029;-46
2023/06/25 05:02:55;;;;;;;16.58;13.73;;;17.80;89.80;;;;;;5053148;28;20446;-49
2023/06/25 05:05:22;;;;;;;19.25;14.93;;;17.90;89.90;;;;;;5050980;28;20518;-47
2023/06/25 05:07:51;;;;;;;17.33;14.52;;;17.90;89.90;;;;;;5049839;28;20025;-48
2023/06/25 05:10:22;;;;;;;16.40;14.23;;;18.00;89.90;;;;;;5052870;28;20037;-44
2023/06/25 05:12:50;;;;;;;15.23;13.27;;;18.00;89.80;;;;;;5053103;28;20024;-45
2023/06/25 05:15:21;;;;;;;19.00;14.55;;;18.10;89.70;;;;;;5029698;28;20810;-46
2023/06/25 05:17:49;;;;;;;17.98;13.57;;;18.10;89.70;;;;;;5049833;28;20048;-46
2023/06/25 05:20:15;;;;;;;14.80;13.15;;;18.10;89.70;;;;;;5034309;28;20369;-47
2023/06/25 05:22:43;;;;;;;17.83;13.60;;;18.20;89.80;;;;;;5050731;28;20028;-46
2023/06/25 05:25:11;;;;;;;14.00;12.27;;;18.30;89.80;;;;;;5056214;28;20082;-51
2023/06/25 05:27:39;;;;;;;15.57;12.48;;;18.30;89.70;;;;;;5057971;28;20037;-52
2023/06/25 05:30:11;;;;;;;14.90;13.27;;;18.30;89.70;;;;;;5058132;28;20032;-48
2023/06/25 05:32:38;;;;;;;14.40;11.52;;;18.40;89.60;;;;;;5060312;28;20017;-46
2023/06/25 05:35:05;;;;;;;13.40;11.93;;;18.40;89.60;;;;;;5061427;28;20025;-47
2023/06/25 05:37:32;;;;;;;15.45;12.93;;;18.50;89.50;;;;;;5060724;28;20021;-46
2023/06/25 05:39:59;;;;;;;13.25;11.30;;;18.60;89.50;;;;;;5067437;28;20517;-45
2023/06/25 05:42:29;;;;;;;14.43;10.88;;;18.70;89.50;;;;;;5059690;28;20456;-49
2023/06/25 05:44:57;;;;;;;14.40;10.65;;;18.80;89.60;;;;;;5066124;28;20033;-46
2023/06/25 05:47:24;;;;;;;14.70;10.57;;;18.90;89.60;;;;;;5058100;28;20724;-47
2023/06/25 05:49:51;;;;;;;14.30;10.77;;;19.10;89.60;;;;;;5063764;28;20033;-48
2023/06/25 05:52:21;;;;;;;13.13;11.52;;;19.30;89.70;;;;;;5053845;28;20343;-47
2023/06/25 05:54:47;;;;;;;13.57;11.77;;;19.50;89.60;;;;;;5061670;28;20027;-47
2023/06/25 05:57:14;;;;;;;13.35;11.38;;;19.90;89.50;;;;;;5059489;28;20434;-51
2023/06/25 05:59:41;;;;;;;12.98;11.60;;;20.10;88.60;;;;;;5060776;28;20027;-49
2023/06/25 06:02:09;;;;;;;12.00;10.13;;;20.40;87.70;;;;;;5042447;28;20041;-47
2023/06/25 06:04:37;;;;;;;12.23;10.93;;;20.80;86.70;;;;;;5064737;28;20040;-50
2023/06/25 06:07:07;;;;;;;11.05;8.95;;;21.00;85.30;;;;;;5045223;28;20438;-49
2023/06/25 06:09:33;;;;;;;11.73;9.13;;;21.40;85.10;;;;;;5056814;28;20099;-48
2023/06/25 06:12:00;;;;;;;9.77;8.32;;;21.60;84.10;;;;;;5065799;28;20024;-48
2023/06/25 06:14:27;;;;;;;9.32;7.70;;;21.90;84.00;;;;;;5063729;28;20013;-48
2023/06/25 06:16:54;;;;;;;8.70;7.45;;;22.10;83.10;;;;;;5055277;28;20450;-50
2023/06/25 06:19:20;;;;;;;8.95;7.70;;;22.40;81.80;;;;;;5048308;28;20029;-49
2023/06/25 06:21:49;;;;;;;10.95;9.02;;;22.80;81.00;;;;;;5041454;28;20029;-49
2023/06/25 06:24:17;;;;;;;10.00;8.30;;;22.80;78.50;;;;;;5053909;28;20025;-48
2023/06/25 06:26:43;;;;;;;9.75;8.75;;;22.80;78.90;;;;;;5064018;28;20107;-50
2023/06/25 06:29:10;;;;;;;9.68;7.65;;;22.80;78.10;;;;;;5066789;28;20446;-48
2023/06/25 06:31:40;;;;;;;10.95;9.93;;;22.90;79.10;;;;;;5056318;28;20049;-52
2023/06/25 06:34:08;;;;;;;10.82;7.57;;;22.90;78.50;;;;;;5058841;28;20378;-48
2023/06/25 06:36:35;;;;;;;8.35;6.43;;;22.90;78.10;;;;;;5037401;28;20033;-48
2023/06/25 06:39:05;;;;;;;9.43;7.70;;;23.00;77.70;;;;;;5055106;28;20461;-48
2023/06/25 06:41:32;;;;;;;10.45;8.07;;;23.00;76.30;;;;;;5064471;28;20048;-48
2023/06/25 06:44:10;;;;;;;9.63;8.63;;;22.80;76.20;;;;;;5064130;28;20081;-48
2023/06/25 06:46:37;;;;;;;11.65;9.35;;;22.70;77.10;;;;;;5027920;28;20071;-49
2023/06/25 06:49:05;;;;;;;10.85;8.35;;;22.70;76.70;;;;;;5058333;28;20372;-48
2023/06/25 06:51:32;;;;;;;9.18;7.47;;;22.80;76.70;;;;;;5047269;28;20028;-49
2023/06/25 06:53:58;;;;;;;11.65;8.02;;;22.90;77.50;;;;;;5042476;28;20032;-48
2023/06/25 06:56:23;;;;;;;9.60;8.15;;;22.90;76.30;;;;;;5056069;28;20040;-48
2023/06/25 06:58:50;;;;;;;8.18;7.00;;;22.90;76.40;;;;;;5054613;28;20828;-47
2023/06/25 07:01:18;;;;;;;10.05;8.45;;;23.10;75.60;;;;;;5036089;28;20033;-47
2023/06/25 07:03:45;;;;;;;8.55;7.22;;;23.00;75.70;;;;;;5055082;28;20466;-48
2023/06/25 07:06:10;;;;;;;7.95;6.35;;;23.20;76.60;;;;;;5058578;28;20040;-47
2023/06/25 07:08:37;;;;;;;8.10;6.25;;;23.40;76.50;;;;;;5057914;28;20108;-50
2023/06/25 07:11:06;;;;;;;6.70;5.78;;;23.60;73.60;;;;;;5060680;28;20164;-49
2023/06/25 07:13:33;;;;;;;9.55;6.38;;;23.60;74.50;;;;;;5074440;28;20097;-50
2023/06/25 07:16:00;;;;;;;9.65;6.90;;;23.90;74.50;;;;;;5047846;28;20363;-47
2023/06/25 07:18:26;;;;;;;10.43;8.20;;;24.10;74.30;;;;;;5036083;28;20520;-49
2023/06/25 07:20:53;;;;;;;10.27;7.45;;;24.40;72.10;;;;;;5052824;28;20041;-49
2023/06/25 07:23:19;;;;;;;7.78;6.80;;;24.60;72.10;;;;;;5054174;28;20032;-48
2023/06/25 07:25:46;;;;;;;10.07;8.18;;;25.10;71.60;;;;;;5052347;28;20438;-47
2023/06/25 07:28:13;;;;;;;9.40;5.75;;;25.40;69.70;;;;;;5018132;28;20034;-47
2023/06/25 07:30:39;;;;;;;8.70;6.72;;;25.90;69.20;;;;;;5035938;28;20089;-48
2023/06/25 07:33:07;;;;;;;10.15;8.48;;;26.40;67.40;;;;;;5053270;28;20514;-49
2023/06/25 07:35:35;;;;;;;10.95;9.02;;;26.80;65.70;;;;;;5051721;28;20083;-47
2023/06/25 07:38:01;;;;;;;8.95;8.00;;;27.10;63.40;;;;;;5052781;28;20521;-48
2023/06/25 07:40:30;;;;;;;11.35;8.43;;;27.40;64.80;;;;;;5061032;28;20044;-47
2023/06/25 07:42:59;;;;;;;6.50;5.80;;;27.40;64.20;;;;;;5059169;28;20379;-49
2023/06/25 07:45:26;;;;;;;9.38;6.93;;;27.50;62.60;;;;;;5054849;28;20025;-50
2023/06/25 07:47:52;;;;;;;7.15;6.45;;;27.60;62.10;;;;;;5051153;28;20381;-49
2023/06/25 07:50:21;;;;;;;10.75;9.65;;;28.10;62.80;;;;;;5052923;28;20039;-49
2023/06/25 07:52:48;;;;;;;11.27;10.15;;;28.40;58.10;;;;;;5049237;28;20029;-49
2023/06/25 07:55:18;;;;;;;8.50;7.57;;;28.40;58.90;;;;;;5020090;28;20409;-49
2023/06/25 07:57:47;;;;;;;7.40;6.40;;;28.60;60.60;;;;;;5055025;28;20052;-48
2023/06/25 08:00:14;;;;;;;;;;;29.10;59.20;;;;;;5053378;28;20028;-52
2023/06/25 08:02:41;;;;;;;7.03;6.07;;;29.20;54.90;;;;;;5053511;28;19908;-50
2023/06/25 08:05:07;;;;;;;8.63;6.95;;;29.20;57.80;;;;;;5047560;28;20104;-49
2023/06/25 08:07:34;;;;;;;10.38;7.60;;;29.30;56.30;;;;;;5040576;28;20033;-50
2023/06/25 08:10:03;;;;;;;7.38;6.22;;;29.70;57.80;;;;;;5052438;28;20052;-51
2023/06/25 08:12:32;;;;;;;;;;;30.00;55.00;;;;;;5051792;28;20021;-48
2023/06/25 08:14:58;;;;;;;;;;;30.10;55.90;;;;;;5054217;28;19908;-50
2023/06/25 08:17:24;;;;;;;8.73;6.28;;;30.20;56.00;;;;;;5049438;28;19940;-51
2023/06/25 08:19:54;;;;;;;7.35;5.85;;;30.50;56.00;;;;;;5052130;28;20083;-49
2023/06/25 08:22:21;;;;;;;10.07;6.32;;;30.80;54.00;;;;;;5049625;28;20059;-48
2023/06/25 08:24:49;;;;;;;6.18;5.20;;;30.40;50.90;;;;;;5030268;28;20040;-50
2023/06/25 08:27:15;;;;;;;6.35;5.53;;;30.30;53.00;;;;;;5031497;28;20088;-49
2023/06/25 08:29:43;;;;;;;7.38;5.25;;;29.90;50.80;;;;;;5060986;28;20033;-55
2023/06/25 08:32:11;;;;;;;6.55;5.13;;;30.20;55.50;;;;;;5035095;28;20055;-49
2023/06/25 08:34:39;;;;;;;5.85;5.18;;;30.60;53.20;;;;;;5051902;28;20052;-49
2023/06/25 08:37:07;;;;;;;10.55;5.88;;;30.80;54.40;;;;;;5060273;28;20017;-49
2023/06/25 08:39:34;;;;;;;6.82;5.20;;;31.00;51.00;;;;;;5065352;28;20036;-49
2023/06/25 08:42:02;;;;;;;4.80;4.20;;;31.30;53.60;;;;;;5052367;28;20032;-49
2023/06/25 08:44:30;;;;;;;5.63;4.60;;;30.90;50.30;;;;;;5052091;28;20036;-49
2023/06/25 08:46:58;;;;;;;6.85;5.22;;;31.00;51.50;;;;;;5050925;28;20029;-49
2023/06/25 08:49:30;;;;;;;8.05;5.47;;;30.70;49.10;;;;;;5069045;28;20029;-49
2023/06/25 08:51:58;;;;;;;6.57;5.75;;;30.80;52.50;;;;;;5048158;28;20037;-49
2023/06/25 08:54:25;;;;;;;6.80;5.57;;;30.60;48.60;;;;;;5052949;28;20025;-51
2023/06/25 08:56:53;;;;;;;7.05;5.78;;;30.50;50.90;;;;;;5067453;28;20036;-49
2023/06/25 08:59:21;;;;;;;5.97;5.30;;;30.70;53.40;;;;;;5053104;28;20071;-54
2023/06/25 09:01:47;;;;;;;7.32;4.60;;;30.90;56.20;;;;;;5051053;28;20032;-50
2023/06/25 09:04:13;;;;;;;6.95;6.25;;;31.10;54.30;;;;;;5062295;28;20197;-50
2023/06/25 09:06:53;;;;;;;7.22;4.90;;;30.90;53.10;;;;;;5052662;28;20438;-54
2023/06/25 09:09:22;;;;;;;6.28;4.45;;;30.90;53.50;;;;;;5050414;28;20032;-53
2023/06/25 09:11:54;;;;;;;6.35;5.45;;;30.90;54.20;;;;;;5048430;28;20055;-49
2023/06/25 09:14:25;;;;;;;6.88;5.93;;;30.80;53.30;;;;;;5048422;28;20026;-54
2023/06/25 09:16:51;;;;;;;8.27;5.57;;;30.40;53.60;;;;;;5049363;28;20461;-54
2023/06/25 09:19:22;;;;;;;6.32;4.60;;;30.20;55.90;;;;;;5065468;28;20451;-51
2023/06/25 09:21:52;;;;;;;5.85;4.80;;;30.50;53.60;;;;;;5065041;28;20025;-50
2023/06/25 09:24:29;;;;;;;6.45;4.88;;;30.70;55.90;;;;;;5032477;28;20122;-53
2023/06/25 09:26:56;;;;;;;5.93;4.88;;;30.20;52.60;;;;;;5042710;28;20470;-51
2023/06/25 09:29:24;;;;;;;5.32;4.82;;;30.10;54.40;;;;;;5048266;28;20519;-54
2023/06/25 09:31:51;;;;;;;6.38;4.72;;;30.00;53.70;;;;;;5049742;28;20041;-50
2023/06/25 09:34:18;;;;;;;6.35;4.53;;;29.80;56.00;;;;;;5065103;28;20029;-51
2023/06/25 09:36:46;;;;;;;6.53;5.93;;;30.00;56.10;;;;;;5035132;28;20162;-56
2023/06/25 09:39:16;;;;;;;5.88;5.28;;;29.90;53.70;;;;;;5052214;28;20013;-53
2023/06/25 09:41:44;;;;;;;6.43;5.72;;;30.00;53.90;;;;;;5063879;28;20505;-50
2023/06/25 09:44:12;;;;;;;9.02;5.18;;;29.80;54.20;;;;;;5051370;28;20029;-53
2023/06/25 09:46:42;;;;;;;7.57;5.53;;;29.60;56.80;;;;;;5049682;28;20033;-50
2023/06/25 09:49:07;;;;;;;9.95;5.00;;;30.00;57.30;;;;;;5050563;28;20021;-54
2023/06/25 09:52:09;;;;;;;5.47;4.88;;;30.30;57.40;;;;;;5051144;28;20492;-54
2023/06/25 09:54:43;;;;;;;5.28;4.55;;;30.70;55.90;;;;;;5064979;28;20119;-51
2023/06/25 09:57:12;;;;;;;7.50;5.32;;;31.00;54.70;;;;;;5049716;28;20032;-54
2023/06/25 09:59:39;;;;;;;6.00;5.40;;;30.80;55.10;;;;;;5063135;28;20462;-55
2023/06/25 10:02:07;;;;;;;6.95;4.82;;;31.00;55.70;;;;;;5050257;28;20044;-54
2023/06/25 10:04:35;;;;;;;5.10;4.53;;;31.10;54.50;;;;;;5049216;28;20101;-55
2023/06/25 10:07:04;;;;;;;9.02;5.78;;;31.20;53.90;;;;;;5060783;28;20103;-53
2023/06/25 10:09:31;;;;;;;5.72;4.97;;;31.00;53.70;;;;;;5016015;28;20060;-52
2023/06/25 10:11:59;;;;;;;6.25;5.05;;;31.30;53.70;;;;;;5050617;28;20048;-56
2023/06/25 10:14:35;;;;;;;6.45;5.65;;;31.40;52.40;;;;;;5049315;28;20091;-55
2023/06/25 10:17:06;;;;;;;7.82;6.35;;;31.40;53.00;;;;;;5048396;28;20126;-51
2023/06/25 10:19:31;;;;;;;5.80;5.13;;;31.50;50.00;;;;;;5047869;28;20481;-54
2023/06/25 10:22:16;;;;;;;6.93;5.57;;;31.10;52.40;;;;;;5032828;28;20114;-56
2023/06/25 10:24:49;;;;;;;6.80;6.10;;;31.30;53.90;;;;;;5039017;28;20415;-53
2023/06/25 10:27:23;;;;;;;6.80;5.72;;;31.30;52.40;;;;;;5039358;28;20170;-55
2023/06/25 10:29:51;;;;;;;6.13;5.38;;;31.20;52.10;;;;;;5058640;28;20029;-54
2023/06/25 10:32:26;;;;;;;5.82;5.20;;;31.10;54.60;;;;;;5051802;28;20112;-51
2023/06/25 10:35:05;;;;;;;8.25;6.05;;;31.10;53.10;;;;;;5050566;28;20065;-51
2023/06/25 10:37:36;;;;;;;5.57;4.93;;;31.10;53.70;;;;;;5051353;28;20109;-53
2023/06/25 10:40:22;;;;;;;6.90;6.30;;;31.40;55.00;;;;;;5056040;28;20342;-50
2023/06/25 10:42:50;;;;;;;5.38;4.88;;;31.20;54.10;;;;;;5054756;28;20490;-52
2023/06/25 10:45:22;;;;;;;5.67;5.17;;;31.40;53.00;;;;;;5053713;28;20029;-54
2023/06/25 10:47:59;;;;;;;5.88;5.28;;;31.40;51.00;;;;;;5041961;28;20098;-51
2023/06/25 10:50:30;;;;;;;6.28;5.20;;;31.00;53.30;;;;;;5039924;28;20037;-52
2023/06/25 10:52:57;;;;;;;6.75;6.13;;;31.10;55.90;;;;;;5049402;28;20059;-52
2023/06/25 10:55:37;;;;;;;8.00;7.20;;;31.40;54.00;;;;;;5049499;28;20056;-53
2023/06/25 10:58:04;;;;;;;6.95;6.00;;;30.40;53.50;;;;;;5053765;28;20025;-54
2023/06/25 11:00:31;;;;;;;7.05;6.10;;;30.10;55.50;;;;;;5035425;28;20037;-50
2023/06/25 11:02:59;;;;;;;7.05;6.18;;;30.20;56.20;;;;;;5053070;28;20051;-51
2023/06/25 11:05:42;;;;;;;6.70;6.10;;;30.00;55.50;;;;;;5034845;28;20029;-53
2023/06/25 11:08:12;;;;;;;7.53;6.43;;;30.20;56.10;;;;;;5051274;28;20025;-55
2023/06/25 11:10:41;;;;;;;9.80;6.65;;;30.10;54.70;;;;;;5041099;28;20057;-54
2023/06/25 11:13:15;;;;;;;7.32;6.63;;;30.30;57.10;;;;;;5033064;28;20021;-52
2023/06/25 11:15:40;;;;;;;8.73;7.63;;;30.20;55.40;;;;;;5030409;28;20025;-55
2023/06/25 11:18:14;;;;;;;5.75;5.15;;;30.40;57.30;;;;;;5037691;28;20344;-55
2023/06/25 11:20:41;;;;;;;9.02;7.38;;;30.80;57.70;;;;;;5033070;28;20041;-50
2023/06/25 11:23:10;;;;;;;6.88;5.40;;;30.70;53.30;;;;;;5015227;28;20045;-52
2023/06/25 11:25:37;;;;;;;7.55;6.38;;;30.20;55.40;;;;;;5027203;28;20550;-50
2023/06/25 11:28:11;;;;;;;7.28;6.47;;;30.10;54.50;;;;;;5033061;28;20604;-54
2023/06/25 11:30:39;;;;;;;6.28;5.68;;;30.30;56.50;;;;;;5031965;28;20076;-50
2023/06/25 11:33:24;;;;;;;7.05;6.22;;;30.50;55.70;;;;;;5034780;28;20328;-55
2023/06/25 11:36:04;;;;;;;6.80;6.20;;;30.50;56.40;;;;;;5033126;28;20343;-53
2023/06/25 11:38:31;;;;;;;7.95;6.72;;;30.50;57.00;;;;;;5015194;28;20030;-50
2023/06/25 11:40:57;;;;;;;6.78;6.15;;;30.60;56.00;;;;;;5015015;28;20335;-54
2023/06/25 11:43:25;;;;;;;7.57;6.78;;;30.60;55.10;;;;;;5014133;28;20435;-56
2023/06/25 11:45:52;;;;;;;6.82;6.22;;;30.40;54.90;;;;;;5017344;28;20059;-50
2023/06/25 11:48:21;;;;;;;8.82;7.22;;;30.50;55.90;;;;;;5035989;28;20033;-50
2023/06/25 11:50:53;;;;;;;8.82;6.60;;;30.40;57.90;;;;;;5017037;28;20033;-52
2023/06/25 11:53:19;;;;;;;7.45;6.75;;;30.60;57.70;;;;;;5031439;28;20035;-51
2023/06/25 11:55:46;;;;;;;6.43;5.82;;;30.60;54.50;;;;;;5033496;28;20056;-53
2023/06/25 11:58:13;;;;;;;6.70;5.97;;;30.50;56.30;;;;;;5015081;28;20068;-52
2023/06/25 12:00:42;;;;;;;7.18;6.53;;;30.50;54.80;;;;;;5032531;28;20037;-53
2023/06/25 12:03:10;;;;;;;6.97;6.30;;;30.30;53.20;;;;;;5033029;28;20422;-51
2023/06/25 12:05:36;;;;;;;6.68;6.05;;;29.60;56.00;;;;;;5025660;28;20079;-51
2023/06/25 12:08:03;;;;;;;8.77;5.85;;;29.40;59.00;;;;;;5034105;28;20137;-51
2023/06/25 12:10:30;;;;;;;7.93;5.65;;;29.30;54.90;;;;;;5043125;28;20044;-54
2023/06/25 12:12:57;;;;;;;6.60;5.93;;;29.20;55.00;;;;;;5052336;28;20044;-53
2023/06/25 12:15:27;;;;;;;7.05;6.35;;;29.30;55.50;;;;;;5052965;28;20033;-52
2023/06/25 12:17:53;;;;;;;8.05;7.28;;;29.40;56.80;;;;;;5052807;28;20555;-52
2023/06/25 12:20:21;;;;;;;6.63;6.03;;;29.30;57.30;;;;;;5054056;28;20036;-53
2023/06/25 12:22:49;;;;;;;7.07;6.47;;;29.10;56.50;;;;;;5036308;28;20032;-49
2023/06/25 12:25:17;;;;;;;6.97;6.28;;;28.80;56.70;;;;;;5053791;28;20367;-49
2023/06/25 12:27:44;;;;;;;7.00;5.47;;;28.60;57.70;;;;;;5050228;28;20033;-51
2023/06/25 12:30:11;;;;;;;8.70;5.90;;;28.80;58.20;;;;;;5051849;28;20045;-49
2023/06/25 12:32:38;;;;;;;6.93;6.22;;;28.90;58.20;;;;;;5052466;28;20115;-52
2023/06/25 12:35:06;;;;;;;6.47;5.47;;;29.30;58.10;;;;;;5051817;28;20071;-49
2023/06/25 12:37:38;;;;;;;7.15;6.18;;;29.30;57.90;;;;;;5051100;28;20040;-50
2023/06/25 12:40:05;;;;;;;7.80;6.75;;;29.50;58.30;;;;;;5053635;28;20033;-49
2023/06/25 12:42:32;;;;;;;7.75;7.00;;;29.50;58.90;;;;;;5053657;28;20040;-51
2023/06/25 12:44:59;;;;;;;7.13;6.43;;;29.20;57.90;;;;;;5052763;28;20339;-49